Kortenberg, Belgium
Current Conditions -  °F | °C
As of 10:20 PM on Friday 24 Oct 2014 (Local Time) from EBBR Reporting Station
Broken Clouds Broken Clouds  
Wind Chill: 52°   Ceiling: 1200
Heat Index: 52°   Visibility: 6mi
Dew Point: 48°   Wind: 12mph
Humidity: 88%   Direction: 210°SSW
Pressure: 30.03"   Gusts: NA
Location:  50.89°N, 4.54°E
Report Text: EBBR 242020Z 21010KT 9999 FEW009 BKN012 11/09 Q1017 TEMPO 4000 -RADZ BKN008
Loading
Personal Weather Stations






























Interactive Weather Map New forecast layout! Learn more

10-Day Weather Forecast

Advertisements
Track Severe Weather on mobile